sensor_id;sensor_type;location;lat;lon;timestamp;temperature;humidity
5697;DHT22;2873;50.966;7.210;2022-07-04T00:00:49;19.20;99.90
5697;DHT22;2873;50.966;7.210;2022-07-04T00:03:15;19.20;99.90
5697;DHT22;2873;50.966;7.210;2022-07-04T00:05:40;19.10;99.90
5697;DHT22;2873;50.966;7.210;2022-07-04T00:08:06;19.10;99.90
5697;DHT22;2873;50.966;7.210;2022-07-04T00:10:32;19.00;99.90
5697;DHT22;2873;50.966;7.210;2022-07-04T00:12:58;19.00;99.90
5697;DHT22;2873;50.966;7.210;2022-07-04T00:15:24;18.90;99.90
5697;DHT22;2873;50.966;7.210;2022-07-04T00:17:50;18.90;99.90
5697;DHT22;2873;50.966;7.210;2022-07-04T00:20:16;18.90;99.90
5697;DHT22;2873;50.966;7.210;2022-07-04T00:22:41;18.80;99.90
5697;DHT22;2873;50.966;7.210;2022-07-04T00:25:07;18.70;99.90
5697;DHT22;2873;50.966;7.210;2022-07-04T00:27:33;18.60;99.90
5697;DHT22;2873;50.966;7.210;2022-07-04T00:29:58;18.70;99.90
5697;DHT22;2873;50.966;7.210;2022-07-04T00:32:24;18.60;99.90
5697;DHT22;2873;50.966;7.210;2022-07-04T00:34:50;18.50;99.90
5697;DHT22;2873;50.966;7.210;2022-07-04T00:37:15;18.50;99.90
5697;DHT22;2873;50.966;7.210;2022-07-04T00:39:41;18.50;99.90
5697;DHT22;2873;50.966;7.210;2022-07-04T00:42:07;18.50;99.90
5697;DHT22;2873;50.966;7.210;2022-07-04T00:44:33;18.40;99.90
5697;DHT22;2873;50.966;7.210;2022-07-04T00:47:05;18.30;99.90
5697;DHT22;2873;50.966;7.210;2022-07-04T00:49:31;18.30;99.90
5697;DHT22;2873;50.966;7.210;2022-07-04T00:51:57;18.30;99.90
5697;DHT22;2873;50.966;7.210;2022-07-04T00:54:30;18.30;99.90
5697;DHT22;2873;50.966;7.210;2022-07-04T00:56:57;18.10;99.90
5697;DHT22;2873;50.966;7.210;2022-07-04T00:59:23;18.00;99.90
5697;DHT22;2873;50.966;7.210;2022-07-04T01:01:50;18.10;99.90
5697;DHT22;2873;50.966;7.210;2022-07-04T01:04:16;18.00;99.90
5697;DHT22;2873;50.966;7.210;2022-07-04T01:06:42;18.00;99.90
5697;DHT22;2873;50.966;7.210;2022-07-04T01:09:08;18.00;99.90
5697;DHT22;2873;50.966;7.210;2022-07-04T01:11:34;17.90;99.90
5697;DHT22;2873;50.966;7.210;2022-07-04T01:14:00;17.90;99.90
5697;DHT22;2873;50.966;7.210;2022-07-04T01:16:26;18.00;99.90
5697;DHT22;2873;50.966;7.210;2022-07-04T01:18:52;17.90;99.90
5697;DHT22;2873;50.966;7.210;2022-07-04T01:21:18;17.90;99.90
5697;DHT22;2873;50.966;7.210;2022-07-04T01:23:44;17.90;99.90
5697;DHT22;2873;50.966;7.210;2022-07-04T01:26:10;17.90;99.90
5697;DHT22;2873;50.966;7.210;2022-07-04T01:28:37;17.90;99.90
5697;DHT22;2873;50.966;7.210;2022-07-04T01:31:03;17.90;99.90
5697;DHT22;2873;50.966;7.210;2022-07-04T01:33:29;17.90;99.90
5697;DHT22;2873;50.966;7.210;2022-07-04T01:35:54;17.90;99.90
5697;DHT22;2873;50.966;7.210;2022-07-04T01:38:20;17.80;99.90
5697;DHT22;2873;50.966;7.210;2022-07-04T01:40:45;17.80;99.90
5697;DHT22;2873;50.966;7.210;2022-07-04T01:43:11;17.70;99.90
5697;DHT22;2873;50.966;7.210;2022-07-04T01:45:37;17.70;99.90
5697;DHT22;2873;50.966;7.210;2022-07-04T01:48:12;17.70;99.90
5697;DHT22;2873;50.966;7.210;2022-07-04T01:50:38;17.70;99.90
5697;DHT22;2873;50.966;7.210;2022-07-04T01:53:04;17.60;99.90
5697;DHT22;2873;50.966;7.210;2022-07-04T01:55:31;17.60;99.90
5697;DHT22;2873;50.966;7.210;2022-07-04T01:57:57;17.60;99.90
5697;DHT22;2873;50.966;7.210;2022-07-04T02:00:24;17.50;99.90
5697;DHT22;2873;50.966;7.210;2022-07-04T02:03:09;17.50;99.90
5697;DHT22;2873;50.966;7.210;2022-07-04T02:05:35;17.40;99.90
5697;DHT22;2873;50.966;7.210;2022-07-04T02:08:06;17.30;99.90
5697;DHT22;2873;50.966;7.210;2022-07-04T02:10:32;17.30;99.90
5697;DHT22;2873;50.966;7.210;2022-07-04T02:12:58;17.20;99.90
5697;DHT22;2873;50.966;7.210;2022-07-04T02:15:32;17.10;99.90
5697;DHT22;2873;50.966;7.210;2022-07-04T02:17:58;17.10;99.90
5697;DHT22;2873;50.966;7.210;2022-07-04T02:20:24;17.00;99.90
5697;DHT22;2873;50.966;7.210;2022-07-04T02:22:50;16.90;99.90
5697;DHT22;2873;50.966;7.210;2022-07-04T02:25:16;16.90;99.90
5697;DHT22;2873;50.966;7.210;2022-07-04T02:27:41;16.90;99.90
5697;DHT22;2873;50.966;7.210;2022-07-04T02:30:08;16.90;99.90
5697;DHT22;2873;50.966;7.210;2022-07-04T02:32:34;16.80;99.90
5697;DHT22;2873;50.966;7.210;2022-07-04T02:35:01;16.80;99.90
5697;DHT22;2873;50.966;7.210;2022-07-04T02:37:26;16.70;99.90
5697;DHT22;2873;50.966;7.210;2022-07-04T02:39:52;16.70;99.90
5697;DHT22;2873;50.966;7.210;2022-07-04T02:42:18;16.70;99.90
5697;DHT22;2873;50.966;7.210;2022-07-04T02:44:43;16.60;99.90
5697;DHT22;2873;50.966;7.210;2022-07-04T02:47:10;16.80;99.90
5697;DHT22;2873;50.966;7.210;2022-07-04T02:49:35;16.50;99.90
5697;DHT22;2873;50.966;7.210;2022-07-04T02:52:01;16.40;99.90
5697;DHT22;2873;50.966;7.210;2022-07-04T02:54:26;16.40;99.90
5697;DHT22;2873;50.966;7.210;2022-07-04T02:56:52;16.40;99.90
5697;DHT22;2873;50.966;7.210;2022-07-04T02:59:18;16.30;99.90
5697;DHT22;2873;50.966;7.210;2022-07-04T03:01:43;16.30;99.90
5697;DHT22;2873;50.966;7.210;2022-07-04T03:04:09;16.30;99.90
5697;DHT22;2873;50.966;7.210;2022-07-04T03:06:34;16.20;99.90
5697;DHT22;2873;50.966;7.210;2022-07-04T03:09:00;16.20;99.90
5697;DHT22;2873;50.966;7.210;2022-07-04T03:11:25;16.30;99.90
5697;DHT22;2873;50.966;7.210;2022-07-04T03:13:51;16.20;99.90
5697;DHT22;2873;50.966;7.210;2022-07-04T03:16:16;16.10;99.90
5697;DHT22;2873;50.966;7.210;2022-07-04T03:18:42;16.00;99.90
5697;DHT22;2873;50.966;7.210;2022-07-04T03:21:08;16.00;99.90
5697;DHT22;2873;50.966;7.210;2022-07-04T03:23:34;16.00;99.90
5697;DHT22;2873;50.966;7.210;2022-07-04T03:26:00;15.80;99.90
5697;DHT22;2873;50.966;7.210;2022-07-04T03:28:26;15.80;99.90
5697;DHT22;2873;50.966;7.210;2022-07-04T03:30:52;15.80;99.90
5697;DHT22;2873;50.966;7.210;2022-07-04T03:33:18;15.80;99.90
5697;DHT22;2873;50.966;7.210;2022-07-04T03:35:44;15.80;99.90
5697;DHT22;2873;50.966;7.210;2022-07-04T03:38:09;15.70;99.90
5697;DHT22;2873;50.966;7.210;2022-07-04T03:40:35;15.60;99.90
5697;DHT22;2873;50.966;7.210;2022-07-04T03:43:02;15.60;99.90
5697;DHT22;2873;50.966;7.210;2022-07-04T03:45:27;15.50;99.90
5697;DHT22;2873;50.966;7.210;2022-07-04T03:47:53;15.50;99.90
5697;DHT22;2873;50.966;7.210;2022-07-04T03:50:19;15.60;99.90
5697;DHT22;2873;50.966;7.210;2022-07-04T03:52:44;15.40;99.90
5697;DHT22;2873;50.966;7.210;2022-07-04T03:55:10;15.40;99.90
5697;DHT22;2873;50.966;7.210;2022-07-04T03:57:36;15.40;99.90
5697;DHT22;2873;50.966;7.210;2022-07-04T04:00:03;15.40;99.90
5697;DHT22;2873;50.966;7.210;2022-07-04T04:02:28;15.40;99.90
5697;DHT22;2873;50.966;7.210;2022-07-04T04:04:54;15.40;99.90
5697;DHT22;2873;50.966;7.210;2022-07-04T04:07:38;15.40;99.90
5697;DHT22;2873;50.966;7.210;2022-07-04T04:10:04;15.40;99.90
5697;DHT22;2873;50.966;7.210;2022-07-04T04:12:30;15.40;99.90
5697;DHT22;2873;50.966;7.210;2022-07-04T04:14:56;15.40;99.90
5697;DHT22;2873;50.966;7.210;2022-07-04T04:17:21;15.40;99.90
5697;DHT22;2873;50.966;7.210;2022-07-04T04:19:47;15.40;99.90
5697;DHT22;2873;50.966;7.210;2022-07-04T04:22:12;15.40;99.90
5697;DHT22;2873;50.966;7.210;2022-07-04T04:24:38;15.40;99.90
5697;DHT22;2873;50.966;7.210;2022-07-04T04:27:04;15.40;99.90
5697;DHT22;2873;50.966;7.210;2022-07-04T04:29:29;15.40;99.90
5697;DHT22;2873;50.966;7.210;2022-07-04T04:31:55;15.40;99.90
5697;DHT22;2873;50.966;7.210;2022-07-04T04:34:20;15.40;99.90
5697;DHT22;2873;50.966;7.210;2022-07-04T04:36:46;15.40;99.90
5697;DHT22;2873;50.966;7.210;2022-07-04T04:39:11;15.40;99.90
5697;DHT22;2873;50.966;7.210;2022-07-04T04:41:37;15.40;99.90
5697;DHT22;2873;50.966;7.210;2022-07-04T04:44:02;15.40;99.90
5697;DHT22;2873;50.966;7.210;2022-07-04T04:46:29;15.40;99.90
5697;DHT22;2873;50.966;7.210;2022-07-04T04:48:55;15.50;99.90
5697;DHT22;2873;50.966;7.210;2022-07-04T04:51:20;15.50;99.90
5697;DHT22;2873;50.966;7.210;2022-07-04T04:53:46;15.50;99.90
5697;DHT22;2873;50.966;7.210;2022-07-04T04:56:11;15.50;99.90
5697;DHT22;2873;50.966;7.210;2022-07-04T04:58:37;15.50;99.90
5697;DHT22;2873;50.966;7.210;2022-07-04T05:01:03;15.50;99.90
5697;DHT22;2873;50.966;7.210;2022-07-04T05:03:28;15.50;99.90
5697;DHT22;2873;50.966;7.210;2022-07-04T05:05:55;15.60;99.90
5697;DHT22;2873;50.966;7.210;2022-07-04T05:08:20;15.60;99.90
5697;DHT22;2873;50.966;7.210;2022-07-04T05:10:47;15.60;99.90
5697;DHT22;2873;50.966;7.210;2022-07-04T05:13:13;15.80;99.90
5697;DHT22;2873;50.966;7.210;2022-07-04T05:15:38;15.70;99.90
5697;DHT22;2873;50.966;7.210;2022-07-04T05:18:04;15.70;99.90
5697;DHT22;2873;50.966;7.210;2022-07-04T05:20:29;15.70;99.90
5697;DHT22;2873;50.966;7.210;2022-07-04T05:22:55;15.80;99.90
5697;DHT22;2873;50.966;7.210;2022-07-04T05:25:21;15.80;99.90
5697;DHT22;2873;50.966;7.210;2022-07-04T05:27:46;15.90;99.90
5697;DHT22;2873;50.966;7.210;2022-07-04T05:30:12;15.90;99.90
5697;DHT22;2873;50.966;7.210;2022-07-04T05:32:40;16.00;99.90
5697;DHT22;2873;50.966;7.210;2022-07-04T05:35:07;16.00;99.90
5697;DHT22;2873;50.966;7.210;2022-07-04T05:37:33;16.00;99.90
5697;DHT22;2873;50.966;7.210;2022-07-04T05:39:58;16.10;99.90
5697;DHT22;2873;50.966;7.210;2022-07-04T05:42:24;16.20;99.90
5697;DHT22;2873;50.966;7.210;2022-07-04T05:44:50;16.20;99.90
5697;DHT22;2873;50.966;7.210;2022-07-04T05:47:16;16.30;99.90
5697;DHT22;2873;50.966;7.210;2022-07-04T05:49:42;16.30;99.90
5697;DHT22;2873;50.966;7.210;2022-07-04T05:52:07;16.40;99.90
5697;DHT22;2873;50.966;7.210;2022-07-04T05:54:33;16.50;99.90
5697;DHT22;2873;50.966;7.210;2022-07-04T05:56:59;16.60;99.90
5697;DHT22;2873;50.966;7.210;2022-07-04T05:59:24;16.60;99.90
5697;DHT22;2873;50.966;7.210;2022-07-04T06:01:50;16.70;99.90
5697;DHT22;2873;50.966;7.210;2022-07-04T06:04:15;16.70;99.90
5697;DHT22;2873;50.966;7.210;2022-07-04T06:06:41;16.80;99.90
5697;DHT22;2873;50.966;7.210;2022-07-04T06:09:07;16.80;99.90
5697;DHT22;2873;50.966;7.210;2022-07-04T06:11:32;16.90;99.90
5697;DHT22;2873;50.966;7.210;2022-07-04T06:14:00;17.00;99.90
5697;DHT22;2873;50.966;7.210;2022-07-04T06:16:25;17.10;99.90
5697;DHT22;2873;50.966;7.210;2022-07-04T06:18:51;17.10;99.90
5697;DHT22;2873;50.966;7.210;2022-07-04T06:21:16;17.20;99.90
5697;DHT22;2873;50.966;7.210;2022-07-04T06:23:42;17.30;99.90
5697;DHT22;2873;50.966;7.210;2022-07-04T06:26:07;17.40;99.90
5697;DHT22;2873;50.966;7.210;2022-07-04T06:28:34;17.40;99.90
5697;DHT22;2873;50.966;7.210;2022-07-04T06:31:00;17.60;99.90
5697;DHT22;2873;50.966;7.210;2022-07-04T06:33:25;17.60;99.90
5697;DHT22;2873;50.966;7.210;2022-07-04T06:35:51;17.60;99.90
5697;DHT22;2873;50.966;7.210;2022-07-04T06:38:28;17.70;99.90
5697;DHT22;2873;50.966;7.210;2022-07-04T06:40:55;17.80;99.90
5697;DHT22;2873;50.966;7.210;2022-07-04T06:43:22;18.00;99.90
5697;DHT22;2873;50.966;7.210;2022-07-04T06:45:48;17.90;99.90
5697;DHT22;2873;50.966;7.210;2022-07-04T06:48:13;17.90;99.90
5697;DHT22;2873;50.966;7.210;2022-07-04T06:50:39;18.00;99.90
5697;DHT22;2873;50.966;7.210;2022-07-04T06:53:05;18.10;99.90
5697;DHT22;2873;50.966;7.210;2022-07-04T06:55:32;18.10;99.90
5697;DHT22;2873;50.966;7.210;2022-07-04T06:57:58;18.10;99.90
5697;DHT22;2873;50.966;7.210;2022-07-04T07:00:24;18.10;99.90
5697;DHT22;2873;50.966;7.210;2022-07-04T07:02:49;18.20;99.90
5697;DHT22;2873;50.966;7.210;2022-07-04T07:05:15;18.10;99.90
5697;DHT22;2873;50.966;7.210;2022-07-04T07:07:41;18.20;99.90
5697;DHT22;2873;50.966;7.210;2022-07-04T07:10:07;18.20;99.90
5697;DHT22;2873;50.966;7.210;2022-07-04T07:12:33;18.20;99.90
5697;DHT22;2873;50.966;7.210;2022-07-04T07:15:00;18.30;99.90
5697;DHT22;2873;50.966;7.210;2022-07-04T07:17:25;18.20;99.90
5697;DHT22;2873;50.966;7.210;2022-07-04T07:19:51;18.40;99.90
5697;DHT22;2873;50.966;7.210;2022-07-04T07:22:17;18.50;99.90
5697;DHT22;2873;50.966;7.210;2022-07-04T07:24:43;18.50;99.90
5697;DHT22;2873;50.966;7.210;2022-07-04T07:27:09;18.60;99.90
5697;DHT22;2873;50.966;7.210;2022-07-04T07:29:35;18.60;99.90
5697;DHT22;2873;50.966;7.210;2022-07-04T07:32:01;18.60;99.90
5697;DHT22;2873;50.966;7.210;2022-07-04T07:34:26;18.60;99.90
5697;DHT22;2873;50.966;7.210;2022-07-04T07:36:52;18.70;99.90
5697;DHT22;2873;50.966;7.210;2022-07-04T07:39:18;18.80;99.90
5697;DHT22;2873;50.966;7.210;2022-07-04T07:41:43;18.80;99.90
5697;DHT22;2873;50.966;7.210;2022-07-04T07:44:09;18.70;99.90
5697;DHT22;2873;50.966;7.210;2022-07-04T07:46:34;18.80;99.90
5697;DHT22;2873;50.966;7.210;2022-07-04T07:49:00;18.90;99.90
5697;DHT22;2873;50.966;7.210;2022-07-04T07:51:25;19.00;99.90
5697;DHT22;2873;50.966;7.210;2022-07-04T07:53:51;19.00;99.90
5697;DHT22;2873;50.966;7.210;2022-07-04T07:56:17;19.00;99.90
5697;DHT22;2873;50.966;7.210;2022-07-04T07:58:42;19.00;99.90
5697;DHT22;2873;50.966;7.210;2022-07-04T08:01:08;19.10;99.90
5697;DHT22;2873;50.966;7.210;2022-07-04T08:03:33;19.10;99.90
5697;DHT22;2873;50.966;7.210;2022-07-04T08:06:17;19.00;99.90
5697;DHT22;2873;50.966;7.210;2022-07-04T08:08:44;19.20;99.90
5697;DHT22;2873;50.966;7.210;2022-07-04T08:11:11;19.20;99.90
5697;DHT22;2873;50.966;7.210;2022-07-04T08:13:37;19.30;99.90
5697;DHT22;2873;50.966;7.210;2022-07-04T08:16:04;19.40;99.90
5697;DHT22;2873;50.966;7.210;2022-07-04T08:18:29;19.40;99.90
5697;DHT22;2873;50.966;7.210;2022-07-04T08:20:55;19.40;99.90
5697;DHT22;2873;50.966;7.210;2022-07-04T08:23:21;19.50;99.90
5697;DHT22;2873;50.966;7.210;2022-07-04T08:25:46;19.60;99.90
5697;DHT22;2873;50.966;7.210;2022-07-04T08:28:12;19.60;99.90
5697;DHT22;2873;50.966;7.210;2022-07-04T08:30:37;19.70;99.90
5697;DHT22;2873;50.966;7.210;2022-07-04T08:33:03;19.80;99.90
5697;DHT22;2873;50.966;7.210;2022-07-04T08:35:29;19.80;99.90
5697;DHT22;2873;50.966;7.210;2022-07-04T08:37:54;19.90;99.90
5697;DHT22;2873;50.966;7.210;2022-07-04T08:40:26;19.80;99.90
5697;DHT22;2873;50.966;7.210;2022-07-04T08:42:53;19.90;99.90
5697;DHT22;2873;50.966;7.210;2022-07-04T08:45:28;19.90;99.90
5697;DHT22;2873;50.966;7.210;2022-07-04T08:48:05;19.90;99.90
5697;DHT22;2873;50.966;7.210;2022-07-04T08:53:07;20.00;99.90
5697;DHT22;2873;50.966;7.210;2022-07-04T08:55:35;20.00;99.90
5697;DHT22;2873;50.966;7.210;2022-07-04T08:58:19;20.00;99.90
5697;DHT22;2873;50.966;7.210;2022-07-04T09:00:52;20.00;99.90
5697;DHT22;2873;50.966;7.210;2022-07-04T09:03:21;20.10;99.90
5697;DHT22;2873;50.966;7.210;2022-07-04T09:05:48;20.10;99.90
5697;DHT22;2873;50.966;7.210;2022-07-04T09:08:14;20.10;99.90
5697;DHT22;2873;50.966;7.210;2022-07-04T09:10:39;20.10;99.90
5697;DHT22;2873;50.966;7.210;2022-07-04T09:13:07;20.20;99.90
5697;DHT22;2873;50.966;7.210;2022-07-04T09:15:33;20.20;99.90
5697;DHT22;2873;50.966;7.210;2022-07-04T09:17:59;20.30;99.90
5697;DHT22;2873;50.966;7.210;2022-07-04T09:20:26;20.50;99.90
5697;DHT22;2873;50.966;7.210;2022-07-04T09:22:52;20.50;99.90
5697;DHT22;2873;50.966;7.210;2022-07-04T09:25:20;20.60;99.90
5697;DHT22;2873;50.966;7.210;2022-07-04T09:27:47;20.70;99.90
5697;DHT22;2873;50.966;7.210;2022-07-04T09:30:19;20.60;99.90
5697;DHT22;2873;50.966;7.210;2022-07-04T09:32:55;20.70;99.90
5697;DHT22;2873;50.966;7.210;2022-07-04T09:35:30;20.60;99.90
5697;DHT22;2873;50.966;7.210;2022-07-04T09:37:59;20.60;99.90
5697;DHT22;2873;50.966;7.210;2022-07-04T09:40:38;20.60;99.90
5697;DHT22;2873;50.966;7.210;2022-07-04T09:43:23;20.70;99.90
5697;DHT22;2873;50.966;7.210;2022-07-04T09:45:56;20.80;99.90
5697;DHT22;2873;50.966;7.210;2022-07-04T09:48:23;20.90;99.90
5697;DHT22;2873;50.966;7.210;2022-07-04T09:50:49;21.00;99.90
5697;DHT22;2873;50.966;7.210;2022-07-04T09:53:14;21.00;99.90
5697;DHT22;2873;50.966;7.210;2022-07-04T09:55:40;21.00;99.90
5697;DHT22;2873;50.966;7.210;2022-07-04T09:58:08;21.10;99.90
5697;DHT22;2873;50.966;7.210;2022-07-04T10:00:42;21.10;99.90
5697;DHT22;2873;50.966;7.210;2022-07-04T10:05:47;21.20;99.90
5697;DHT22;2873;50.966;7.210;2022-07-04T10:08:13;21.30;99.90
5697;DHT22;2873;50.966;7.210;2022-07-04T10:10:39;21.30;99.90
5697;DHT22;2873;50.966;7.210;2022-07-04T10:13:11;21.20;99.90
5697;DHT22;2873;50.966;7.210;2022-07-04T10:15:41;21.40;99.90
5697;DHT22;2873;50.966;7.210;2022-07-04T10:18:08;21.50;99.90
5697;DHT22;2873;50.966;7.210;2022-07-04T10:20:34;21.60;99.90
5697;DHT22;2873;50.966;7.210;2022-07-04T10:23:01;21.70;99.90
5697;DHT22;2873;50.966;7.210;2022-07-04T10:25:27;21.60;99.90
5697;DHT22;2873;50.966;7.210;2022-07-04T10:27:53;21.80;99.90
5697;DHT22;2873;50.966;7.210;2022-07-04T10:30:23;21.90;99.90
5697;DHT22;2873;50.966;7.210;2022-07-04T10:32:50;22.00;99.90
5697;DHT22;2873;50.966;7.210;2022-07-04T10:35:17;22.00;99.90
5697;DHT22;2873;50.966;7.210;2022-07-04T10:38:05;22.00;99.90
5697;DHT22;2873;50.966;7.210;2022-07-04T10:40:48;22.10;99.90
5697;DHT22;2873;50.966;7.210;2022-07-04T10:48:50;22.40;99.90
5697;DHT22;2873;50.966;7.210;2022-07-04T10:51:20;22.50;99.90
5697;DHT22;2873;50.966;7.210;2022-07-04T11:01:53;22.80;99.90
5697;DHT22;2873;50.966;7.210;2022-07-04T11:17:55;22.60;99.90
5697;DHT22;2873;50.966;7.210;2022-07-04T11:20:22;22.80;99.90
5697;DHT22;2873;50.966;7.210;2022-07-04T11:22:47;22.90;99.90
5697;DHT22;2873;50.966;7.210;2022-07-04T11:25:14;23.00;99.90
5697;DHT22;2873;50.966;7.210;2022-07-04T11:27:41;23.00;99.90
5697;DHT22;2873;50.966;7.210;2022-07-04T11:30:07;23.30;99.90
5697;DHT22;2873;50.966;7.210;2022-07-04T11:32:35;23.50;99.90
5697;DHT22;2873;50.966;7.210;2022-07-04T11:35:01;23.60;99.90
5697;DHT22;2873;50.966;7.210;2022-07-04T11:37:28;23.70;99.90
5697;DHT22;2873;50.966;7.210;2022-07-04T11:39:55;23.80;99.90
5697;DHT22;2873;50.966;7.210;2022-07-04T11:42:40;23.90;99.90
5697;DHT22;2873;50.966;7.210;2022-07-04T11:45:24;24.00;99.90
5697;DHT22;2873;50.966;7.210;2022-07-04T11:47:50;24.00;99.90
5697;DHT22;2873;50.966;7.210;2022-07-04T11:50:16;24.10;99.90
5697;DHT22;2873;50.966;7.210;2022-07-04T11:55:12;24.30;99.90
5697;DHT22;2873;50.966;7.210;2022-07-04T11:57:49;24.50;99.90
5697;DHT22;2873;50.966;7.210;2022-07-04T12:00:18;24.30;99.90
5697;DHT22;2873;50.966;7.210;2022-07-04T12:02:48;24.40;99.90
5697;DHT22;2873;50.966;7.210;2022-07-04T12:05:15;24.60;99.90
5697;DHT22;2873;50.966;7.210;2022-07-04T12:07:43;24.70;99.90
5697;DHT22;2873;50.966;7.210;2022-07-04T12:10:14;24.80;99.90
5697;DHT22;2873;50.966;7.210;2022-07-04T12:12:59;24.80;99.90
5697;DHT22;2873;50.966;7.210;2022-07-04T12:15:39;24.80;99.90
5697;DHT22;2873;50.966;7.210;2022-07-04T12:18:04;24.90;99.90
5697;DHT22;2873;50.966;7.210;2022-07-04T12:20:31;25.00;99.90
5697;DHT22;2873;50.966;7.210;2022-07-04T12:22:59;25.10;99.90
5697;DHT22;2873;50.966;7.210;2022-07-04T12:25:26;25.30;99.90
5697;DHT22;2873;50.966;7.210;2022-07-04T12:28:01;25.30;99.90
5697;DHT22;2873;50.966;7.210;2022-07-04T12:30:33;25.40;99.90
5697;DHT22;2873;50.966;7.210;2022-07-04T12:33:03;25.50;99.90
5697;DHT22;2873;50.966;7.210;2022-07-04T12:35:33;25.50;99.90
5697;DHT22;2873;50.966;7.210;2022-07-04T12:40:27;25.50;99.90
5697;DHT22;2873;50.966;7.210;2022-07-04T12:42:55;25.60;99.90
5697;DHT22;2873;50.966;7.210;2022-07-04T12:45:22;25.60;99.90
5697;DHT22;2873;50.966;7.210;2022-07-04T12:47:48;25.80;99.90
5697;DHT22;2873;50.966;7.210;2022-07-04T12:50:14;25.70;99.90
5697;DHT22;2873;50.966;7.210;2022-07-04T12:52:40;25.80;99.90
5697;DHT22;2873;50.966;7.210;2022-07-04T12:55:08;25.90;99.90
5697;DHT22;2873;50.966;7.210;2022-07-04T12:57:37;26.00;99.90
5697;DHT22;2873;50.966;7.210;2022-07-04T13:00:03;26.10;99.90
5697;DHT22;2873;50.966;7.210;2022-07-04T13:02:29;26.20;99.90
5697;DHT22;2873;50.966;7.210;2022-07-04T13:04:55;26.20;99.90
5697;DHT22;2873;50.966;7.210;2022-07-04T13:07:22;26.30;99.90
5697;DHT22;2873;50.966;7.210;2022-07-04T13:09:47;26.20;99.90
5697;DHT22;2873;50.966;7.210;2022-07-04T13:12:13;26.30;99.90
5697;DHT22;2873;50.966;7.210;2022-07-04T13:14:53;26.40;99.90
5697;DHT22;2873;50.966;7.210;2022-07-04T13:17:19;26.60;99.90
5697;DHT22;2873;50.966;7.210;2022-07-04T13:19:45;26.60;98.80
5697;DHT22;2873;50.966;7.210;2022-07-04T13:22:11;26.60;99.40
5697;DHT22;2873;50.966;7.210;2022-07-04T13:24:36;26.70;99.90
5697;DHT22;2873;50.966;7.210;2022-07-04T13:27:02;26.60;99.90
5697;DHT22;2873;50.966;7.210;2022-07-04T13:29:28;26.50;99.90
5697;DHT22;2873;50.966;7.210;2022-07-04T13:31:53;26.40;99.90
5697;DHT22;2873;50.966;7.210;2022-07-04T13:34:19;26.40;99.90
5697;DHT22;2873;50.966;7.210;2022-07-04T13:36:44;26.40;99.90
5697;DHT22;2873;50.966;7.210;2022-07-04T13:39:11;26.50;99.90
5697;DHT22;2873;50.966;7.210;2022-07-04T13:41:37;26.60;99.80
5697;DHT22;2873;50.966;7.210;2022-07-04T13:44:04;26.60;99.90
5697;DHT22;2873;50.966;7.210;2022-07-04T13:46:30;26.60;99.20
5697;DHT22;2873;50.966;7.210;2022-07-04T13:49:06;26.60;99.70
5697;DHT22;2873;50.966;7.210;2022-07-04T13:51:32;26.60;99.80
5697;DHT22;2873;50.966;7.210;2022-07-04T13:53:57;26.30;98.50
5697;DHT22;2873;50.966;7.210;2022-07-04T13:56:23;26.20;98.40
5697;DHT22;2873;50.966;7.210;2022-07-04T13:58:49;26.00;98.60
5697;DHT22;2873;50.966;7.210;2022-07-04T14:01:15;26.00;98.70
5697;DHT22;2873;50.966;7.210;2022-07-04T14:03:43;25.90;98.20
5697;DHT22;2873;50.966;7.210;2022-07-04T14:06:09;26.10;98.50
5697;DHT22;2873;50.966;7.210;2022-07-04T14:08:35;26.30;99.40
5697;DHT22;2873;50.966;7.210;2022-07-04T14:11:00;26.50;99.50
5697;DHT22;2873;50.966;7.210;2022-07-04T14:13:26;26.50;98.80
5697;DHT22;2873;50.966;7.210;2022-07-04T14:15:52;26.40;98.50
5697;DHT22;2873;50.966;7.210;2022-07-04T14:18:18;26.50;98.50
5697;DHT22;2873;50.966;7.210;2022-07-04T14:20:43;26.60;99.20
5697;DHT22;2873;50.966;7.210;2022-07-04T14:23:09;26.80;98.60
5697;DHT22;2873;50.966;7.210;2022-07-04T14:25:35;26.90;98.60
5697;DHT22;2873;50.966;7.210;2022-07-04T14:28:00;26.90;98.40
5697;DHT22;2873;50.966;7.210;2022-07-04T14:30:26;27.10;97.60
5697;DHT22;2873;50.966;7.210;2022-07-04T14:32:51;27.10;97.60
5697;DHT22;2873;50.966;7.210;2022-07-04T14:35:18;27.10;97.50
5697;DHT22;2873;50.966;7.210;2022-07-04T14:37:43;27.10;98.10
5697;DHT22;2873;50.966;7.210;2022-07-04T14:40:09;27.00;97.70
5697;DHT22;2873;50.966;7.210;2022-07-04T14:42:35;27.00;98.10
5697;DHT22;2873;50.966;7.210;2022-07-04T14:45:01;27.10;98.20
5697;DHT22;2873;50.966;7.210;2022-07-04T14:47:26;27.10;98.30
5697;DHT22;2873;50.966;7.210;2022-07-04T14:49:52;27.00;98.10
5697;DHT22;2873;50.966;7.210;2022-07-04T14:52:18;27.10;97.70
5697;DHT22;2873;50.966;7.210;2022-07-04T14:54:44;27.10;98.10
5697;DHT22;2873;50.966;7.210;2022-07-04T14:57:09;27.20;98.00
5697;DHT22;2873;50.966;7.210;2022-07-04T14:59:35;27.30;98.10
5697;DHT22;2873;50.966;7.210;2022-07-04T15:02:04;27.40;97.70
5697;DHT22;2873;50.966;7.210;2022-07-04T15:04:30;27.40;97.70
5697;DHT22;2873;50.966;7.210;2022-07-04T15:06:56;27.50;97.70
5697;DHT22;2873;50.966;7.210;2022-07-04T15:09:22;27.50;97.00
5697;DHT22;2873;50.966;7.210;2022-07-04T15:11:47;27.60;97.30
5697;DHT22;2873;50.966;7.210;2022-07-04T15:14:15;27.50;96.50
5697;DHT22;2873;50.966;7.210;2022-07-04T15:16:41;27.60;97.60
5697;DHT22;2873;50.966;7.210;2022-07-04T15:19:07;27.60;96.90
5697;DHT22;2873;50.966;7.210;2022-07-04T15:21:33;27.50;97.00
5697;DHT22;2873;50.966;7.210;2022-07-04T15:24:17;27.40;96.90
5697;DHT22;2873;50.966;7.210;2022-07-04T15:26:48;27.30;97.20
5697;DHT22;2873;50.966;7.210;2022-07-04T15:29:19;27.40;98.00
5697;DHT22;2873;50.966;7.210;2022-07-04T15:31:46;27.40;96.30
5697;DHT22;2873;50.966;7.210;2022-07-04T15:34:12;27.40;96.90
5697;DHT22;2873;50.966;7.210;2022-07-04T15:36:38;27.50;97.10
5697;DHT22;2873;50.966;7.210;2022-07-04T15:39:09;27.40;96.90
5697;DHT22;2873;50.966;7.210;2022-07-04T15:41:36;27.30;96.80
5697;DHT22;2873;50.966;7.210;2022-07-04T15:44:03;27.30;97.30
5697;DHT22;2873;50.966;7.210;2022-07-04T15:46:29;27.30;96.60
5697;DHT22;2873;50.966;7.210;2022-07-04T15:48:54;27.30;96.50
5697;DHT22;2873;50.966;7.210;2022-07-04T15:51:20;27.20;96.50
5697;DHT22;2873;50.966;7.210;2022-07-04T15:53:45;27.20;96.40
5697;DHT22;2873;50.966;7.210;2022-07-04T15:56:11;27.20;96.80
5697;DHT22;2873;50.966;7.210;2022-07-04T15:58:37;27.30;96.80
5697;DHT22;2873;50.966;7.210;2022-07-04T16:01:02;27.30;97.70
5697;DHT22;2873;50.966;7.210;2022-07-04T16:03:31;27.50;97.30
5697;DHT22;2873;50.966;7.210;2022-07-04T16:05:57;27.60;97.10
5697;DHT22;2873;50.966;7.210;2022-07-04T16:08:23;27.50;95.90
5697;DHT22;2873;50.966;7.210;2022-07-04T16:10:48;27.60;97.00
5697;DHT22;2873;50.966;7.210;2022-07-04T16:13:14;27.60;95.80
5697;DHT22;2873;50.966;7.210;2022-07-04T16:15:40;27.70;96.00
5697;DHT22;2873;50.966;7.210;2022-07-04T16:18:06;27.60;94.50
5697;DHT22;2873;50.966;7.210;2022-07-04T16:20:31;27.60;95.30
5697;DHT22;2873;50.966;7.210;2022-07-04T16:22:57;27.60;95.90
5697;DHT22;2873;50.966;7.210;2022-07-04T16:25:22;27.60;95.90
5697;DHT22;2873;50.966;7.210;2022-07-04T16:27:48;27.60;95.60
5697;DHT22;2873;50.966;7.210;2022-07-04T16:30:13;27.60;94.60
5697;DHT22;2873;50.966;7.210;2022-07-04T16:32:39;27.50;94.00
5697;DHT22;2873;50.966;7.210;2022-07-04T16:35:06;27.60;95.40
5697;DHT22;2873;50.966;7.210;2022-07-04T16:37:32;27.60;95.60